Airfield :
LOGIN :

Register | Disclaimer

   EN    FR    IT 

 










Legend :    VFR   Marginal VFR   IFR   Intensive IFR   Very Intensive IFR
Visi :
Ceiling :
>= 8 km
>= 3000ft
5 to 8 km
1000 to 3000 ft
1500m to 5 km
500 to 1000 ft
800 to 1500m
200 to 500 ft
< 800m
< 200 ft
Symbols :   Thunderstorms  Fog  Heavy snow  Heavy precipitations  Wind > 20 kt
SIGMETs :     Misc.  Thunderstorms  Icing  Turbulence  Mountain Waves  Volcanic Ashes







- Airport Elevation : 160 ft
- IATA code : LRT
- Download approach charts


LFRH - Lorient Lann Bihoue

CURRENT METAR :
  • 211300Z AUTO VRB04KT CAVOK 23/10 Q1026 NOSIG

EXPIRED METARs :
  • 211230Z AUTO VRB02KT CAVOK 23/10 Q1026 NOSIG
  • 211200Z AUTO 04006KT 360V100 CAVOK 23/11 Q1026 BECMG 26010KT
  • 211130Z AUTO 10004KT 050V170 CAVOK 23/11 Q1026 BECMG 26010KT
  • 211100Z AUTO 09005KT 030V140 CAVOK 22/12 Q1026 BECMG 24010KT
  • 211030Z AUTO 08007KT 030V130 CAVOK 21/12 Q1026 BECMG 24010KT

TAF TAF LFRH
Valid from the 21 at 12:00 until the 22 at 12:00 UTC


211100Z 2112/2212 12007KT CAVOK
BECMG 2112/2115 26010KT
BECMG 2119/2121 32010KT
BECMG 2121/2123 02010KT
BECMG 2210/2212 24010KT
No reported NOTAMs for that airfield.



MET'MAP, your aeronautical weather chart ! - Copyright ORBIFLY December 2007 - Disclaimer

ORBIFLY MET'MAP TEAM :

Programming & Development : Alexandra Zaïnal
Concept & Development : Baudouin d'Aumeries
Co-Development & Prog : Marc-Olivier Méhu
Technical & hardware support : Manuel Goepfert

Contact : metmap@orbifly.com




SOURCES & CREDITS :

   NOAA